createdAt,value
2018-06-29T00:00:44.791Z,0.00
2018-06-29T00:01:44.793Z,0.00
2018-06-29T00:02:44.795Z,0.00
2018-06-29T00:03:44.796Z,0.00
2018-06-29T00:04:44.797Z,0.00
2018-06-29T00:05:44.800Z,0.00
2018-06-29T00:06:44.811Z,0.00
2018-06-29T00:07:44.803Z,0.00
2018-06-29T00:08:44.802Z,0.00
2018-06-29T00:09:44.808Z,0.00
2018-06-29T00:10:44.808Z,0.00
2018-06-29T00:11:44.811Z,0.00
2018-06-29T00:12:44.807Z,0.00
2018-06-29T00:13:44.814Z,0.00
2018-06-29T00:14:44.821Z,0.00
2018-06-29T00:15:44.816Z,0.00
2018-06-29T00:16:44.824Z,0.00
2018-06-29T00:17:44.819Z,0.00
2018-06-29T00:18:44.821Z,0.00
2018-06-29T00:19:44.823Z,0.00
2018-06-29T00:20:44.824Z,0.00
2018-06-29T00:21:45.045Z,0.00
2018-06-29T00:22:44.831Z,0.00
2018-06-29T00:23:44.828Z,0.00
2018-06-29T00:24:45.040Z,0.00
2018-06-29T00:25:44.831Z,0.00
2018-06-29T00:26:44.835Z,0.00
2018-06-29T00:27:44.841Z,0.00
2018-06-29T00:28:44.836Z,0.00
2018-06-29T00:29:44.836Z,0.00
2018-06-29T00:30:44.838Z,0.00
2018-06-29T00:31:44.841Z,0.00
2018-06-29T00:32:44.840Z,0.00
2018-06-29T00:33:44.843Z,0.00
2018-06-29T00:34:44.844Z,0.00
2018-06-29T00:35:44.847Z,0.00
2018-06-29T00:36:44.846Z,0.00
2018-06-29T00:37:44.849Z,0.00
2018-06-29T00:38:44.851Z,0.00
2018-06-29T00:39:44.853Z,0.00
2018-06-29T00:40:44.852Z,0.00
2018-06-29T00:41:44.854Z,0.00
2018-06-29T00:42:44.855Z,0.00
2018-06-29T00:43:44.858Z,0.00
2018-06-29T00:44:44.859Z,0.00
2018-06-29T00:45:44.859Z,0.00
2018-06-29T00:46:44.859Z,0.00
2018-06-29T00:47:44.861Z,0.00
2018-06-29T00:48:44.863Z,0.00
2018-06-29T00:49:44.869Z,0.00
2018-06-29T00:50:44.867Z,0.00
2018-06-29T00:51:44.869Z,0.00
2018-06-29T00:52:44.869Z,0.00
2018-06-29T00:53:44.870Z,0.00
2018-06-29T00:54:44.875Z,0.00
2018-06-29T00:55:44.876Z,0.00
2018-06-29T00:56:44.874Z,0.00
2018-06-29T00:57:44.876Z,0.00
2018-06-29T00:58:44.879Z,0.00
2018-06-29T00:59:44.880Z,0.00
2018-06-29T01:00:44.884Z,0.00
2018-06-29T01:01:44.883Z,0.00
2018-06-29T01:02:44.885Z,0.00
2018-06-29T01:03:44.883Z,0.00
2018-06-29T01:04:44.886Z,0.00
2018-06-29T01:05:44.889Z,0.00
2018-06-29T01:06:44.899Z,0.00
2018-06-29T01:07:44.891Z,0.00
2018-06-29T01:08:44.894Z,0.00
2018-06-29T01:09:44.891Z,0.00
2018-06-29T01:10:44.897Z,0.00
2018-06-29T01:11:44.894Z,0.00
2018-06-29T01:12:44.900Z,0.00
2018-06-29T01:13:44.896Z,0.00
2018-06-29T01:14:44.897Z,0.00
2018-06-29T01:15:44.902Z,0.00
2018-06-29T01:16:44.901Z,0.00
2018-06-29T01:17:44.904Z,0.00
2018-06-29T01:18:44.902Z,0.00
2018-06-29T01:19:44.902Z,0.00
2018-06-29T01:20:44.906Z,0.00
2018-06-29T01:21:44.914Z,0.00
2018-06-29T01:22:44.909Z,0.00
2018-06-29T01:23:44.909Z,0.00
2018-06-29T01:24:44.910Z,0.00
2018-06-29T01:25:44.911Z,0.00
2018-06-29T01:26:44.913Z,0.00
2018-06-29T01:27:44.916Z,0.00
2018-06-29T01:28:44.971Z,0.00
2018-06-29T01:29:44.916Z,0.00
2018-06-29T01:30:44.917Z,0.00
2018-06-29T01:31:44.918Z,0.00
2018-06-29T01:32:44.919Z,0.00
2018-06-29T01:33:44.920Z,0.00
2018-06-29T01:34:44.922Z,0.00
2018-06-29T01:35:44.924Z,0.00
2018-06-29T01:36:44.924Z,0.00
2018-06-29T01:37:44.925Z,0.00
2018-06-29T01:38:44.926Z,0.00
2018-06-29T01:39:44.930Z,0.00
2018-06-29T01:40:44.928Z,0.00
2018-06-29T01:41:44.929Z,0.00
2018-06-29T01:42:44.928Z,0.00
2018-06-29T01:43:44.933Z,0.00
2018-06-29T01:44:44.931Z,0.00
2018-06-29T01:45:44.933Z,0.00
2018-06-29T01:46:44.935Z,0.00
2018-06-29T01:47:44.936Z,0.00
2018-06-29T01:48:44.938Z,0.00
2018-06-29T01:49:44.936Z,0.00
2018-06-29T01:50:44.944Z,0.00
2018-06-29T01:51:44.939Z,0.00
2018-06-29T01:52:44.944Z,0.00
2018-06-29T01:53:44.942Z,0.00
2018-06-29T01:54:44.940Z,0.00
2018-06-29T01:55:44.944Z,0.00
2018-06-29T01:56:44.941Z,0.00
2018-06-29T01:57:44.948Z,0.00
2018-06-29T01:58:44.946Z,0.00
2018-06-29T01:59:44.947Z,0.00
2018-06-29T02:00:44.951Z,0.00
2018-06-29T02:01:44.947Z,0.00
2018-06-29T02:02:44.949Z,0.00
2018-06-29T02:03:44.946Z,0.00
2018-06-29T02:04:44.951Z,0.00
2018-06-29T02:05:44.949Z,0.00
2018-06-29T02:06:44.954Z,0.00
2018-06-29T02:07:44.957Z,0.00
2018-06-29T02:08:44.950Z,0.00
2018-06-29T02:09:44.955Z,0.00
2018-06-29T02:10:44.957Z,0.00
2018-06-29T02:11:44.955Z,0.00
2018-06-29T02:12:44.957Z,0.00
2018-06-29T02:13:44.955Z,0.00
2018-06-29T02:14:44.959Z,0.00
2018-06-29T02:15:44.960Z,0.00
2018-06-29T02:16:44.959Z,0.00
2018-06-29T02:17:44.959Z,0.00
2018-06-29T02:18:44.961Z,0.00
2018-06-29T02:19:44.972Z,0.00
2018-06-29T02:20:44.963Z,0.00
2018-06-29T02:21:44.963Z,0.00
2018-06-29T02:22:44.962Z,0.00
2018-06-29T02:23:44.964Z,0.00
2018-06-29T02:24:44.966Z,0.00
2018-06-29T02:25:44.966Z,0.00
2018-06-29T02:26:44.971Z,0.00
2018-06-29T02:27:44.980Z,0.00
2018-06-29T02:28:44.970Z,0.00
2018-06-29T02:29:44.969Z,0.00
2018-06-29T02:30:44.976Z,0.00
2018-06-29T02:31:44.973Z,0.00
2018-06-29T02:32:44.972Z,0.00
2018-06-29T02:33:44.972Z,0.00
2018-06-29T02:34:44.973Z,0.00
2018-06-29T02:35:44.976Z,0.00
2018-06-29T02:36:44.973Z,0.00
2018-06-29T02:37:44.975Z,0.00
2018-06-29T02:38:44.975Z,0.00
2018-06-29T02:39:44.976Z,0.00
2018-06-29T02:40:44.976Z,0.00
2018-06-29T02:41:44.978Z,0.00
2018-06-29T02:42:44.981Z,0.00
2018-06-29T02:43:44.980Z,0.00
2018-06-29T02:44:44.982Z,0.00
2018-06-29T02:45:44.979Z,0.00
2018-06-29T02:46:45.002Z,0.00
2018-06-29T02:47:44.980Z,0.00
2018-06-29T02:48:44.983Z,0.00
2018-06-29T02:49:45.033Z,0.00
2018-06-29T02:50:44.981Z,0.00
2018-06-29T02:51:44.982Z,0.00
2018-06-29T02:52:44.984Z,0.00
2018-06-29T02:53:44.984Z,0.00
2018-06-29T02:54:45.025Z,0.00
2018-06-29T02:55:44.984Z,0.00
2018-06-29T02:56:44.984Z,0.00
2018-06-29T02:57:44.985Z,0.00
2018-06-29T02:58:44.987Z,0.00
2018-06-29T02:59:44.985Z,0.00
2018-06-29T03:00:44.997Z,5.63
2018-06-29T03:01:44.988Z,5.63
2018-06-29T03:02:44.989Z,5.63
2018-06-29T03:03:44.995Z,5.63
2018-06-29T03:04:45.024Z,5.63
2018-06-29T03:05:44.988Z,5.63
2018-06-29T03:06:44.994Z,5.63
2018-06-29T03:07:44.990Z,5.63
2018-06-29T03:08:44.990Z,5.63
2018-06-29T03:09:44.995Z,5.63
2018-06-29T03:10:44.992Z,5.63
2018-06-29T03:11:45.005Z,5.63
2018-06-29T03:12:44.992Z,5.63
2018-06-29T03:13:44.993Z,5.63
2018-06-29T03:14:44.988Z,5.63
2018-06-29T03:15:44.996Z,5.63
2018-06-29T03:16:44.994Z,5.63
2018-06-29T03:17:44.995Z,5.63
2018-06-29T03:18:44.999Z,5.63
2018-06-29T03:19:45.027Z,5.63
2018-06-29T03:20:44.996Z,11.25
2018-06-29T03:21:45.000Z,11.25
2018-06-29T03:22:44.998Z,11.25
2018-06-29T03:23:44.998Z,11.25
2018-06-29T03:24:45.013Z,11.25
2018-06-29T03:25:45.001Z,11.25
2018-06-29T03:26:45.000Z,11.25
2018-06-29T03:27:45.012Z,11.25
2018-06-29T03:28:45.003Z,11.25
2018-06-29T03:29:45.011Z,11.25
2018-06-29T03:30:45.004Z,16.88
2018-06-29T03:31:45.007Z,22.50
2018-06-29T03:32:45.003Z,22.50
2018-06-29T03:33:45.010Z,22.50
2018-06-29T03:34:45.048Z,33.75
2018-06-29T03:35:45.007Z,39.38
2018-06-29T03:36:45.012Z,50.63
2018-06-29T03:37:45.010Z,50.63
2018-06-29T03:38:45.021Z,56.25
2018-06-29T03:39:45.013Z,56.25
2018-06-29T03:40:45.014Z,56.25
2018-06-29T03:41:45.017Z,61.88
2018-06-29T03:42:45.022Z,61.88
2018-06-29T03:43:45.014Z,61.88
2018-06-29T03:44:45.015Z,61.88
2018-06-29T03:45:45.015Z,61.88
2018-06-29T03:46:45.017Z,67.50
2018-06-29T03:47:45.085Z,67.50
2018-06-29T03:48:45.019Z,67.50
2018-06-29T03:49:45.019Z,67.50
2018-06-29T03:50:45.020Z,73.13
2018-06-29T03:51:45.044Z,73.13
2018-06-29T03:52:45.023Z,73.13
2018-06-29T03:53:45.025Z,73.13
2018-06-29T03:54:45.027Z,73.13
2018-06-29T03:55:45.032Z,73.13
2018-06-29T03:56:45.030Z,78.75
2018-06-29T03:57:45.028Z,78.75
2018-06-29T03:58:45.031Z,78.75
2018-06-29T03:59:45.030Z,78.75
2018-06-29T04:00:45.033Z,78.75
2018-06-29T04:01:45.041Z,84.38
2018-06-29T04:02:45.036Z,84.38
2018-06-29T04:03:45.038Z,84.38
2018-06-29T04:04:45.063Z,84.38
2018-06-29T04:05:45.038Z,84.38
2018-06-29T04:06:45.043Z,90.00
2018-06-29T04:07:45.044Z,90.00
2018-06-29T04:08:45.043Z,90.00
2018-06-29T04:09:45.075Z,90.00
2018-06-29T04:10:45.048Z,90.00
2018-06-29T04:11:45.095Z,90.00
2018-06-29T04:12:45.054Z,95.63
2018-06-29T04:13:45.049Z,90.00
2018-06-29T04:14:45.056Z,90.00
2018-06-29T04:15:45.171Z,90.00
2018-06-29T04:16:45.065Z,90.00
2018-06-29T04:17:45.060Z,90.00
2018-06-29T04:18:45.091Z,90.00
2018-06-29T04:19:45.077Z,101.25
2018-06-29T04:20:45.064Z,101.25
2018-06-29T04:21:45.068Z,101.25
2018-06-29T04:22:45.071Z,101.25
2018-06-29T04:23:45.070Z,101.25
2018-06-29T04:24:45.131Z,101.25
2018-06-29T04:25:45.080Z,101.25
2018-06-29T04:26:45.078Z,101.25
2018-06-29T04:27:45.079Z,106.88
2018-06-29T04:28:45.081Z,106.88
2018-06-29T04:29:45.096Z,106.88
2018-06-29T04:30:45.089Z,106.88
2018-06-29T04:31:45.089Z,106.88
2018-06-29T04:32:45.128Z,106.88
2018-06-29T04:33:45.093Z,106.88
2018-06-29T04:34:45.117Z,106.88
2018-06-29T04:35:45.097Z,112.50
2018-06-29T04:36:45.100Z,112.50
2018-06-29T04:37:45.104Z,112.50
2018-06-29T04:38:45.103Z,112.50
2018-06-29T04:39:45.125Z,112.50
2018-06-29T04:40:45.109Z,112.50
2018-06-29T04:41:45.117Z,112.50
2018-06-29T04:42:45.119Z,112.50
2018-06-29T04:43:45.117Z,112.50
2018-06-29T04:44:45.114Z,118.13
2018-06-29T04:45:45.120Z,118.13
2018-06-29T04:46:45.123Z,118.13
2018-06-29T04:47:45.127Z,118.13
2018-06-29T04:48:45.151Z,118.13
2018-06-29T04:49:45.130Z,118.13
2018-06-29T04:50:45.134Z,118.13
2018-06-29T04:51:45.145Z,118.13
2018-06-29T04:52:45.138Z,118.13
2018-06-29T04:53:45.142Z,118.13
2018-06-29T04:54:45.154Z,118.13
2018-06-29T04:55:45.147Z,118.13
2018-06-29T04:56:45.152Z,118.13
2018-06-29T04:57:45.153Z,118.13
2018-06-29T04:58:45.155Z,123.75
2018-06-29T04:59:45.167Z,123.75
2018-06-29T05:00:45.161Z,123.75
2018-06-29T05:01:45.165Z,123.75
2018-06-29T05:02:45.167Z,123.75
2018-06-29T05:03:45.172Z,123.75
2018-06-29T05:04:45.170Z,123.75
2018-06-29T05:05:45.176Z,123.75
2018-06-29T05:06:45.182Z,123.75
2018-06-29T05:07:45.185Z,123.75
2018-06-29T05:08:45.189Z,123.75
2018-06-29T05:09:45.194Z,123.75
2018-06-29T05:10:45.195Z,123.75
2018-06-29T05:11:45.199Z,123.75
2018-06-29T05:12:45.202Z,129.38
2018-06-29T05:13:45.205Z,129.38
2018-06-29T05:14:45.209Z,129.38
2018-06-29T05:15:45.213Z,129.38
2018-06-29T05:16:45.219Z,129.38
2018-06-29T05:17:45.220Z,129.38
2018-06-29T05:18:45.224Z,129.38
2018-06-29T05:19:45.233Z,129.38
2018-06-29T05:20:45.232Z,135.00
2018-06-29T05:21:45.237Z,135.00
2018-06-29T05:22:45.243Z,135.00
2018-06-29T05:23:45.247Z,135.00
2018-06-29T05:24:45.247Z,135.00
2018-06-29T05:25:45.251Z,135.00
2018-06-29T05:26:45.259Z,140.63
2018-06-29T05:27:45.262Z,140.63
2018-06-29T05:28:45.267Z,140.63
2018-06-29T05:29:45.273Z,140.63
2018-06-29T05:30:45.280Z,146.25
2018-06-29T05:31:45.281Z,146.25
2018-06-29T05:32:45.287Z,146.25
2018-06-29T05:33:45.290Z,151.88
2018-06-29T05:34:45.299Z,151.88
2018-06-29T05:35:45.300Z,151.88
2018-06-29T05:36:45.305Z,157.50
2018-06-29T05:37:45.309Z,163.13
2018-06-29T05:38:45.313Z,168.75
2018-06-29T05:39:45.318Z,168.75
2018-06-29T05:40:45.323Z,174.38
2018-06-29T05:41:45.429Z,180.00
2018-06-29T05:42:45.398Z,185.63
2018-06-29T05:43:45.341Z,191.25
2018-06-29T05:44:45.344Z,196.88
2018-06-29T05:45:45.350Z,202.50
2018-06-29T05:46:45.355Z,202.50
2018-06-29T05:47:45.361Z,208.13
2018-06-29T05:48:45.369Z,208.13
2018-06-29T05:49:45.371Z,213.75
2018-06-29T05:50:45.375Z,213.75
2018-06-29T05:51:45.423Z,213.75
2018-06-29T05:52:45.386Z,219.38
2018-06-29T05:53:45.392Z,225.00
2018-06-29T05:54:45.402Z,230.63
2018-06-29T05:55:45.407Z,236.25
2018-06-29T05:56:45.409Z,236.25
2018-06-29T05:57:45.413Z,241.88
2018-06-29T05:58:45.420Z,241.88
2018-06-29T05:59:45.430Z,247.50
2018-06-29T06:00:45.436Z,253.13
2018-06-29T06:01:45.437Z,253.13
2018-06-29T06:02:45.445Z,258.75
2018-06-29T06:03:45.452Z,258.75
2018-06-29T06:04:45.470Z,258.75
2018-06-29T06:05:45.468Z,258.75
2018-06-29T06:06:45.472Z,264.38
2018-06-29T06:07:45.472Z,264.38
2018-06-29T06:08:45.479Z,264.38
2018-06-29T06:09:45.486Z,270.00
2018-06-29T06:10:45.491Z,270.00
2018-06-29T06:11:45.499Z,275.63
2018-06-29T06:12:45.504Z,275.63
2018-06-29T06:13:45.510Z,281.25
2018-06-29T06:14:45.516Z,281.25
2018-06-29T06:15:45.523Z,286.88
2018-06-29T06:16:45.528Z,292.50
2018-06-29T06:17:45.534Z,298.13
2018-06-29T06:18:45.542Z,298.13
2018-06-29T06:19:45.549Z,303.75
2018-06-29T06:20:45.552Z,303.75
2018-06-29T06:21:45.560Z,309.38
2018-06-29T06:22:45.568Z,315.00
2018-06-29T06:23:45.575Z,320.63
2018-06-29T06:24:45.579Z,320.63
2018-06-29T06:25:45.587Z,326.25
2018-06-29T06:26:45.594Z,331.88
2018-06-29T06:27:45.605Z,343.13
2018-06-29T06:28:45.606Z,348.75
2018-06-29T06:29:45.612Z,354.38
2018-06-29T06:30:45.620Z,360.00
2018-06-29T06:31:45.628Z,371.25
2018-06-29T06:32:45.633Z,376.88
2018-06-29T06:33:45.639Z,388.13
2018-06-29T06:34:45.648Z,393.75
2018-06-29T06:35:45.655Z,405.00
2018-06-29T06:36:45.659Z,421.88
2018-06-29T06:37:45.668Z,450.00
2018-06-29T06:38:45.676Z,489.38
2018-06-29T06:39:45.686Z,506.25
2018-06-29T06:40:45.693Z,511.88
2018-06-29T06:41:45.699Z,528.75
2018-06-29T06:42:45.705Z,545.63
2018-06-29T06:43:45.707Z,551.25
2018-06-29T06:44:45.718Z,556.88
2018-06-29T06:45:45.724Z,568.13
2018-06-29T06:46:45.735Z,573.75
2018-06-29T06:47:45.743Z,585.00
2018-06-29T06:48:45.748Z,590.63
2018-06-29T06:49:45.752Z,601.88
2018-06-29T06:50:45.760Z,613.13
2018-06-29T06:51:45.774Z,618.75
2018-06-29T06:52:45.785Z,630.00
2018-06-29T06:53:45.884Z,635.63
2018-06-29T06:54:45.800Z,641.25
2018-06-29T06:55:45.803Z,641.25
2018-06-29T06:56:45.810Z,652.50
2018-06-29T06:57:45.826Z,669.38
2018-06-29T06:58:45.825Z,675.00
2018-06-29T06:59:45.835Z,675.00
2018-06-29T07:00:45.841Z,680.63
2018-06-29T07:01:45.852Z,691.88
2018-06-29T07:02:45.860Z,697.50
2018-06-29T07:03:45.871Z,703.13
2018-06-29T07:04:45.878Z,703.13
2018-06-29T07:05:45.885Z,703.13
2018-06-29T07:06:45.894Z,714.38
2018-06-29T07:07:45.904Z,714.38
2018-06-29T07:08:45.911Z,714.38
2018-06-29T07:09:45.919Z,714.38
2018-06-29T07:10:45.929Z,725.63
2018-06-29T07:11:45.936Z,731.25
2018-06-29T07:12:45.948Z,731.25
2018-06-29T07:13:45.953Z,731.25
2018-06-29T07:14:45.963Z,703.13
2018-06-29T07:15:45.972Z,697.50
2018-06-29T07:16:45.981Z,669.38
2018-06-29T07:17:45.990Z,708.75
2018-06-29T07:18:46.003Z,725.63
2018-06-29T07:19:46.011Z,759.38
2018-06-29T07:20:46.022Z,765.00
2018-06-29T07:21:46.028Z,765.00
2018-06-29T07:22:46.036Z,765.00
2018-06-29T07:23:46.046Z,770.63
2018-06-29T07:24:46.054Z,770.63
2018-06-29T07:25:46.064Z,753.75
2018-06-29T07:26:46.073Z,759.38
2018-06-29T07:27:46.086Z,753.75
2018-06-29T07:28:46.093Z,753.75
2018-06-29T07:29:46.100Z,759.38
2018-06-29T07:30:46.111Z,776.25
2018-06-29T07:31:46.122Z,781.88
2018-06-29T07:32:46.129Z,804.38
2018-06-29T07:33:46.139Z,832.50
2018-06-29T07:34:46.149Z,832.50
2018-06-29T07:35:46.161Z,810.00
2018-06-29T07:36:46.167Z,804.38
2018-06-29T07:37:46.178Z,815.63
2018-06-29T07:38:46.267Z,815.63
2018-06-29T07:39:46.198Z,815.63
2018-06-29T07:40:46.209Z,810.00
2018-06-29T07:41:46.221Z,798.75
2018-06-29T07:42:46.232Z,776.25
2018-06-29T07:43:46.239Z,770.63
2018-06-29T07:44:46.247Z,781.88
2018-06-29T07:45:46.260Z,798.75
2018-06-29T07:46:46.343Z,804.38
2018-06-29T07:47:46.278Z,793.13
2018-06-29T07:48:46.292Z,787.50
2018-06-29T07:49:46.298Z,781.88
2018-06-29T07:50:46.350Z,787.50
2018-06-29T07:51:46.319Z,793.13
2018-06-29T07:52:46.342Z,793.13
2018-06-29T07:53:46.464Z,798.75
2018-06-29T07:54:46.352Z,798.75
2018-06-29T07:55:46.361Z,759.38
2018-06-29T07:56:46.368Z,770.63
2018-06-29T07:57:46.380Z,753.75
2018-06-29T07:58:46.563Z,776.25
2018-06-29T07:59:46.402Z,770.63
2018-06-29T08:00:46.415Z,765.00
2018-06-29T08:01:46.427Z,770.63
2018-06-29T08:02:46.442Z,731.25
2018-06-29T08:03:46.453Z,720.00
2018-06-29T08:04:46.455Z,748.13
2018-06-29T08:05:46.538Z,748.13
2018-06-29T08:06:46.480Z,765.00
2018-06-29T08:07:46.488Z,731.25
2018-06-29T08:08:46.500Z,759.38
2018-06-29T08:09:46.510Z,703.13
2018-06-29T08:10:46.523Z,624.38
2018-06-29T08:11:46.537Z,652.50
2018-06-29T08:12:46.542Z,765.00
2018-06-29T08:13:46.554Z,770.63
2018-06-29T08:14:46.568Z,765.00
2018-06-29T08:15:46.577Z,765.00
2018-06-29T08:16:46.596Z,753.75
2018-06-29T08:17:46.615Z,753.75
2018-06-29T08:18:46.704Z,748.13
2018-06-29T08:19:46.654Z,765.00
2018-06-29T08:20:46.633Z,776.25
2018-06-29T08:21:46.711Z,776.25
2018-06-29T08:22:46.655Z,781.88
2018-06-29T08:23:46.665Z,748.13
2018-06-29T08:24:46.676Z,776.25
2018-06-29T08:25:46.691Z,776.25
2018-06-29T08:26:46.699Z,793.13
2018-06-29T08:27:46.712Z,810.00
2018-06-29T08:28:46.783Z,815.63
2018-06-29T08:29:46.735Z,810.00
2018-06-29T08:30:46.751Z,815.63
2018-06-29T08:31:46.762Z,815.63
2018-06-29T08:32:46.771Z,815.63
2018-06-29T08:33:46.784Z,810.00
2018-06-29T08:34:46.801Z,815.63
2018-06-29T08:35:46.815Z,815.63
2018-06-29T08:36:47.054Z,810.00
2018-06-29T08:37:46.927Z,798.75
2018-06-29T08:38:46.875Z,753.75
2018-06-29T08:39:46.864Z,787.50
2018-06-29T08:40:46.872Z,804.38
2018-06-29T08:41:46.883Z,810.00
2018-06-29T08:42:46.896Z,804.38
2018-06-29T08:43:46.916Z,804.38
2018-06-29T08:44:46.934Z,804.38
2018-06-29T08:45:46.936Z,770.63
2018-06-29T08:46:46.971Z,793.13
2018-06-29T08:47:47.017Z,652.50
2018-06-29T08:48:46.976Z,545.63
2018-06-29T08:49:46.990Z,613.13
2018-06-29T08:50:47.290Z,601.88
2018-06-29T08:51:47.016Z,759.38
2018-06-29T08:52:47.027Z,697.50
2018-06-29T08:53:47.041Z,675.00
2018-06-29T08:54:47.056Z,630.00
2018-06-29T08:55:47.073Z,573.75
2018-06-29T08:56:47.083Z,506.25
2018-06-29T08:57:47.096Z,421.88
2018-06-29T08:58:47.165Z,326.25
2018-06-29T08:59:47.123Z,191.25
2018-06-29T09:00:47.138Z,129.38
2018-06-29T09:01:47.154Z,112.50
2018-06-29T09:02:47.166Z,106.88
2018-06-29T09:03:47.178Z,101.25
2018-06-29T09:04:47.191Z,101.25
2018-06-29T09:05:47.203Z,95.63
2018-06-29T09:06:47.217Z,95.63
2018-06-29T09:07:47.228Z,101.25
2018-06-29T09:08:47.241Z,101.25
2018-06-29T09:09:47.274Z,101.25
2018-06-29T09:10:47.360Z,101.25
2018-06-29T09:11:47.281Z,101.25
2018-06-29T09:12:47.295Z,95.63
2018-06-29T09:13:47.297Z,95.63
2018-06-29T09:14:47.308Z,90.00
2018-06-29T09:15:47.317Z,84.38
2018-06-29T09:16:47.331Z,90.00
2018-06-29T09:17:47.379Z,90.00
2018-06-29T09:18:47.349Z,95.63
2018-06-29T09:19:47.360Z,95.63
2018-06-29T09:20:47.369Z,90.00
2018-06-29T09:21:47.376Z,95.63
2018-06-29T09:22:47.396Z,101.25
2018-06-29T09:23:47.397Z,101.25
2018-06-29T09:24:47.746Z,101.25
2018-06-29T09:25:47.413Z,101.25
2018-06-29T09:26:47.467Z,101.25
2018-06-29T09:27:47.431Z,101.25
2018-06-29T09:28:47.439Z,106.88
2018-06-29T09:29:47.541Z,112.50
2018-06-29T09:30:47.458Z,118.13
2018-06-29T09:31:47.677Z,118.13
2018-06-29T09:32:47.471Z,118.13
2018-06-29T09:33:47.478Z,112.50
2018-06-29T09:34:47.492Z,112.50
2018-06-29T09:35:47.773Z,112.50
2018-06-29T09:36:47.502Z,106.88
2018-06-29T09:37:47.728Z,101.25
2018-06-29T09:38:47.620Z,95.63
2018-06-29T09:39:47.666Z,95.63
2018-06-29T09:40:47.533Z,90.00
2018-06-29T09:41:47.681Z,90.00
2018-06-29T09:42:47.548Z,90.00
2018-06-29T09:43:47.554Z,90.00
2018-06-29T09:44:47.563Z,84.38
2018-06-29T09:45:47.579Z,84.38
2018-06-29T09:46:47.581Z,84.38
2018-06-29T09:47:47.696Z,78.75
2018-06-29T09:48:47.603Z,78.75
2018-06-29T09:49:47.602Z,78.75
2018-06-29T09:50:47.607Z,84.38
2018-06-29T09:51:47.615Z,84.38
2018-06-29T09:52:47.619Z,84.38
2018-06-29T09:53:47.629Z,90.00
2018-06-29T09:54:47.636Z,90.00
2018-06-29T09:55:47.642Z,95.63
2018-06-29T09:56:47.649Z,95.63
2018-06-29T09:57:47.657Z,101.25
2018-06-29T09:58:47.683Z,106.88
2018-06-29T09:59:47.672Z,112.50
2018-06-29T10:00:47.708Z,112.50
2018-06-29T10:01:47.685Z,118.13
2018-06-29T10:02:47.795Z,118.13
2018-06-29T10:03:47.698Z,118.13
2018-06-29T10:04:47.704Z,112.50
2018-06-29T10:05:47.711Z,101.25
2018-06-29T10:06:47.719Z,101.25
2018-06-29T10:07:47.726Z,95.63
2018-06-29T10:08:47.731Z,95.63
2018-06-29T10:09:47.885Z,95.63
2018-06-29T10:10:47.745Z,95.63
2018-06-29T10:11:47.752Z,101.25
2018-06-29T10:12:47.819Z,95.63
2018-06-29T10:13:47.766Z,90.00
2018-06-29T10:14:47.774Z,95.63
2018-06-29T10:15:47.780Z,95.63
2018-06-29T10:16:47.830Z,95.63
2018-06-29T10:17:47.793Z,90.00
2018-06-29T10:18:47.800Z,84.38
2018-06-29T10:19:47.878Z,73.13
2018-06-29T10:20:47.812Z,61.88
2018-06-29T10:21:47.820Z,61.88
2018-06-29T10:22:47.831Z,56.25
2018-06-29T10:23:47.841Z,61.88
2018-06-29T10:24:47.842Z,61.88
2018-06-29T10:25:47.849Z,61.88
2018-06-29T10:26:47.950Z,61.88
2018-06-29T10:27:47.860Z,61.88
2018-06-29T10:28:47.865Z,61.88
2018-06-29T10:29:47.872Z,61.88
2018-06-29T10:30:47.922Z,67.50
2018-06-29T10:31:47.889Z,73.13
2018-06-29T10:32:47.942Z,73.13
2018-06-29T10:33:47.899Z,73.13
2018-06-29T10:34:47.905Z,73.13
2018-06-29T10:35:47.913Z,73.13
2018-06-29T10:36:47.957Z,73.13
2018-06-29T10:37:47.927Z,73.13
2018-06-29T10:38:47.951Z,73.13
2018-06-29T10:39:47.942Z,73.13
2018-06-29T10:40:47.944Z,73.13
2018-06-29T10:41:47.951Z,73.13
2018-06-29T10:42:47.958Z,73.13
2018-06-29T10:43:47.967Z,73.13
2018-06-29T10:44:48.039Z,78.75
2018-06-29T10:45:47.978Z,78.75
2018-06-29T10:46:47.984Z,78.75
2018-06-29T10:47:47.989Z,78.75
2018-06-29T10:48:47.993Z,78.75
2018-06-29T10:49:48.007Z,78.75
2018-06-29T10:50:48.010Z,84.38
2018-06-29T10:51:48.016Z,84.38
2018-06-29T10:52:48.081Z,84.38
2018-06-29T10:53:48.062Z,84.38
2018-06-29T10:54:48.166Z,90.00
2018-06-29T10:55:48.042Z,90.00
2018-06-29T10:56:48.048Z,95.63
2018-06-29T10:57:48.052Z,101.25
2018-06-29T10:58:48.059Z,106.88
2018-06-29T10:59:48.068Z,106.88
2018-06-29T11:00:48.074Z,112.50
2018-06-29T11:01:48.081Z,118.13
2018-06-29T11:02:48.084Z,118.13
2018-06-29T11:03:48.093Z,123.75
2018-06-29T11:04:48.100Z,129.38
2018-06-29T11:05:48.105Z,135.00
2018-06-29T11:06:48.112Z,135.00
2018-06-29T11:07:48.118Z,140.63
2018-06-29T11:08:48.125Z,135.00
2018-06-29T11:09:48.132Z,135.00
2018-06-29T11:10:48.199Z,135.00
2018-06-29T11:11:48.146Z,135.00
2018-06-29T11:12:48.154Z,135.00
2018-06-29T11:13:48.165Z,135.00
2018-06-29T11:14:48.167Z,135.00
2018-06-29T11:15:48.176Z,135.00
2018-06-29T11:16:48.183Z,135.00
2018-06-29T11:17:48.197Z,135.00
2018-06-29T11:18:48.201Z,135.00
2018-06-29T11:19:48.203Z,135.00
2018-06-29T11:20:48.214Z,129.38
2018-06-29T11:21:48.221Z,123.75
2018-06-29T11:22:48.226Z,118.13
2018-06-29T11:23:48.233Z,118.13
2018-06-29T11:24:48.238Z,118.13
2018-06-29T11:25:48.245Z,118.13
2018-06-29T11:26:48.251Z,112.50
2018-06-29T11:27:48.261Z,106.88
2018-06-29T11:28:48.266Z,101.25
2018-06-29T11:29:48.271Z,101.25
2018-06-29T11:30:48.278Z,95.63
2018-06-29T11:31:48.285Z,90.00
2018-06-29T11:32:48.292Z,84.38
2018-06-29T11:33:48.297Z,84.38
2018-06-29T11:34:48.307Z,78.75
2018-06-29T11:35:48.316Z,73.13
2018-06-29T11:36:48.349Z,73.13
2018-06-29T11:37:48.327Z,67.50
2018-06-29T11:38:48.334Z,73.13
2018-06-29T11:39:48.361Z,73.13
2018-06-29T11:40:48.347Z,78.75
2018-06-29T11:41:48.354Z,78.75
2018-06-29T11:42:48.365Z,78.75
2018-06-29T11:43:48.367Z,78.75
2018-06-29T11:44:48.374Z,78.75
2018-06-29T11:45:48.381Z,73.13
2018-06-29T11:46:48.391Z,73.13
2018-06-29T11:47:48.396Z,73.13
2018-06-29T11:48:48.398Z,73.13
2018-06-29T11:49:48.410Z,67.50
2018-06-29T11:50:48.417Z,73.13
2018-06-29T11:51:48.424Z,73.13
2018-06-29T11:52:48.428Z,78.75
2018-06-29T11:53:48.437Z,73.13
2018-06-29T11:54:48.442Z,73.13
2018-06-29T11:55:48.453Z,73.13
2018-06-29T11:56:48.546Z,67.50
2018-06-29T11:57:48.471Z,67.50
2018-06-29T11:58:48.466Z,67.50
2018-06-29T11:59:48.477Z,67.50
2018-06-29T12:00:48.481Z,67.50
2018-06-29T12:01:48.544Z,67.50
2018-06-29T12:02:48.495Z,67.50
2018-06-29T12:03:48.502Z,67.50
2018-06-29T12:04:48.507Z,67.50
2018-06-29T12:05:48.547Z,73.13
2018-06-29T12:06:48.522Z,67.50
2018-06-29T12:07:48.535Z,61.88
2018-06-29T12:08:48.540Z,61.88
2018-06-29T12:09:48.543Z,56.25
2018-06-29T12:10:48.550Z,56.25
2018-06-29T12:11:48.556Z,56.25
2018-06-29T12:12:48.561Z,56.25
2018-06-29T12:13:48.568Z,56.25
2018-06-29T12:14:48.676Z,56.25
2018-06-29T12:15:48.627Z,56.25
2018-06-29T12:16:48.601Z,56.25
2018-06-29T12:17:48.596Z,56.25
2018-06-29T12:18:48.792Z,50.63
2018-06-29T12:19:48.608Z,45.00
2018-06-29T12:20:48.638Z,45.00
2018-06-29T12:21:48.621Z,50.63
2018-06-29T12:22:48.629Z,50.63
2018-06-29T12:23:48.632Z,50.63
2018-06-29T12:24:48.639Z,50.63
2018-06-29T12:25:48.691Z,50.63
2018-06-29T12:26:48.732Z,50.63
2018-06-29T12:27:48.659Z,50.63
2018-06-29T12:28:48.665Z,50.63
2018-06-29T12:29:48.673Z,50.63
2018-06-29T12:30:48.680Z,50.63
2018-06-29T12:31:48.835Z,50.63
2018-06-29T12:32:48.693Z,50.63
2018-06-29T12:33:48.700Z,50.63
2018-06-29T12:34:48.705Z,50.63
2018-06-29T12:35:48.713Z,50.63
2018-06-29T12:36:48.722Z,50.63
2018-06-29T12:37:48.726Z,50.63
2018-06-29T12:38:48.734Z,50.63
2018-06-29T12:39:48.741Z,50.63
2018-06-29T12:40:48.901Z,50.63
2018-06-29T12:41:48.752Z,50.63
2018-06-29T12:42:48.759Z,56.25
2018-06-29T12:43:48.766Z,56.25
2018-06-29T12:44:48.771Z,56.25
2018-06-29T12:45:48.885Z,56.25
2018-06-29T12:46:48.790Z,56.25
2018-06-29T12:47:48.793Z,56.25